sensor_id;sensor_type;location;lat;lon;timestamp;temperature;humidity
16863;DHT22;52193;48.216;-1.698;2023-03-16T00:02:20;14.70;99.90
16863;DHT22;52193;48.216;-1.698;2023-03-16T00:04:48;14.80;99.90
16863;DHT22;52193;48.216;-1.698;2023-03-16T00:07:17;14.70;99.90
16863;DHT22;52193;48.216;-1.698;2023-03-16T00:09:46;14.70;99.90
16863;DHT22;52193;48.216;-1.698;2023-03-16T00:12:15;14.80;99.90
16863;DHT22;52193;48.216;-1.698;2023-03-16T00:14:43;14.80;99.90
16863;DHT22;52193;48.216;-1.698;2023-03-16T00:17:11;14.80;99.90
16863;DHT22;52193;48.216;-1.698;2023-03-16T00:19:44;14.70;99.90
16863;DHT22;52193;48.216;-1.698;2023-03-16T00:22:13;14.70;99.90
16863;DHT22;52193;48.216;-1.698;2023-03-16T00:24:42;14.70;99.90
16863;DHT22;52193;48.216;-1.698;2023-03-16T00:27:10;14.70;99.90
16863;DHT22;52193;48.216;-1.698;2023-03-16T00:29:40;14.70;99.90
16863;DHT22;52193;48.216;-1.698;2023-03-16T00:32:15;14.70;99.90
16863;DHT22;52193;48.216;-1.698;2023-03-16T00:34:42;14.70;99.90
16863;DHT22;52193;48.216;-1.698;2023-03-16T00:37:10;14.80;99.90
16863;DHT22;52193;48.216;-1.698;2023-03-16T00:39:39;14.80;99.90
16863;DHT22;52193;48.216;-1.698;2023-03-16T00:42:08;14.80;99.90
16863;DHT22;52193;48.216;-1.698;2023-03-16T00:44:35;14.70;99.90
16863;DHT22;52193;48.216;-1.698;2023-03-16T00:47:04;14.70;99.90
16863;DHT22;52193;48.216;-1.698;2023-03-16T00:49:32;14.80;99.90
16863;DHT22;52193;48.216;-1.698;2023-03-16T00:51:59;14.80;99.90
16863;DHT22;52193;48.216;-1.698;2023-03-16T00:54:26;14.80;99.90
16863;DHT22;52193;48.216;-1.698;2023-03-16T00:56:53;14.80;99.90
16863;DHT22;52193;48.216;-1.698;2023-03-16T00:59:22;14.80;99.90
16863;DHT22;52193;48.216;-1.698;2023-03-16T01:01:50;14.80;99.90
16863;DHT22;52193;48.216;-1.698;2023-03-16T01:04:18;14.90;99.90
16863;DHT22;52193;48.216;-1.698;2023-03-16T01:06:45;14.90;99.90
16863;DHT22;52193;48.216;-1.698;2023-03-16T01:09:12;14.90;99.90
16863;DHT22;52193;48.216;-1.698;2023-03-16T01:11:39;14.90;99.90
16863;DHT22;52193;48.216;-1.698;2023-03-16T01:14:07;14.90;99.90
16863;DHT22;52193;48.216;-1.698;2023-03-16T01:16:36;14.90;99.90
16863;DHT22;52193;48.216;-1.698;2023-03-16T01:19:03;14.80;99.90
16863;DHT22;52193;48.216;-1.698;2023-03-16T01:21:30;14.80;99.90
16863;DHT22;52193;48.216;-1.698;2023-03-16T01:23:58;14.70;99.90
16863;DHT22;52193;48.216;-1.698;2023-03-16T01:26:25;14.80;99.90
16863;DHT22;52193;48.216;-1.698;2023-03-16T01:28:52;14.80;99.90
16863;DHT22;52193;48.216;-1.698;2023-03-16T01:31:20;14.80;99.90
16863;DHT22;52193;48.216;-1.698;2023-03-16T01:33:48;14.80;99.90
16863;DHT22;52193;48.216;-1.698;2023-03-16T01:36:17;14.80;99.90
16863;DHT22;52193;48.216;-1.698;2023-03-16T01:38:45;14.80;99.90
16863;DHT22;52193;48.216;-1.698;2023-03-16T01:41:13;14.90;99.90
16863;DHT22;52193;48.216;-1.698;2023-03-16T01:43:41;14.90;99.90
16863;DHT22;52193;48.216;-1.698;2023-03-16T01:46:15;14.80;99.90
16863;DHT22;52193;48.216;-1.698;2023-03-16T01:48:48;14.70;99.90
16863;DHT22;52193;48.216;-1.698;2023-03-16T01:51:21;14.60;99.90
16863;DHT22;52193;48.216;-1.698;2023-03-16T01:53:51;14.70;99.90
16863;DHT22;52193;48.216;-1.698;2023-03-16T01:56:21;14.60;99.90
16863;DHT22;52193;48.216;-1.698;2023-03-16T01:58:52;14.60;99.90
16863;DHT22;52193;48.216;-1.698;2023-03-16T02:01:24;14.70;99.90
16863;DHT22;52193;48.216;-1.698;2023-03-16T02:03:55;14.70;99.90
16863;DHT22;52193;48.216;-1.698;2023-03-16T02:06:23;14.70;99.90
16863;DHT22;52193;48.216;-1.698;2023-03-16T02:08:50;14.70;99.90
16863;DHT22;52193;48.216;-1.698;2023-03-16T02:11:20;14.70;99.90
16863;DHT22;52193;48.216;-1.698;2023-03-16T02:13:48;14.60;99.90
16863;DHT22;52193;48.216;-1.698;2023-03-16T02:16:17;14.50;99.90
16863;DHT22;52193;48.216;-1.698;2023-03-16T02:18:47;14.60;99.90
16863;DHT22;52193;48.216;-1.698;2023-03-16T02:21:20;14.60;99.90
16863;DHT22;52193;48.216;-1.698;2023-03-16T02:23:51;14.60;99.90
16863;DHT22;52193;48.216;-1.698;2023-03-16T02:26:25;14.60;99.90
16863;DHT22;52193;48.216;-1.698;2023-03-16T02:29:07;14.60;99.90
16863;DHT22;52193;48.216;-1.698;2023-03-16T02:31:38;14.60;99.90
16863;DHT22;52193;48.216;-1.698;2023-03-16T02:34:06;14.60;99.90
16863;DHT22;52193;48.216;-1.698;2023-03-16T02:36:33;14.50;99.90
16863;DHT22;52193;48.216;-1.698;2023-03-16T02:39:02;14.50;99.90
16863;DHT22;52193;48.216;-1.698;2023-03-16T02:41:30;14.40;99.90
16863;DHT22;52193;48.216;-1.698;2023-03-16T02:44:02;14.50;99.90
16863;DHT22;52193;48.216;-1.698;2023-03-16T02:46:30;14.40;99.90
16863;DHT22;52193;48.216;-1.698;2023-03-16T02:49:05;14.40;99.90
16863;DHT22;52193;48.216;-1.698;2023-03-16T02:51:33;14.30;99.90
16863;DHT22;52193;48.216;-1.698;2023-03-16T02:54:00;14.30;99.90
16863;DHT22;52193;48.216;-1.698;2023-03-16T02:56:27;14.40;99.90
16863;DHT22;52193;48.216;-1.698;2023-03-16T02:58:54;14.30;99.90
16863;DHT22;52193;48.216;-1.698;2023-03-16T03:01:22;14.40;99.90
16863;DHT22;52193;48.216;-1.698;2023-03-16T03:03:49;14.30;99.90
16863;DHT22;52193;48.216;-1.698;2023-03-16T03:06:17;14.30;99.90
16863;DHT22;52193;48.216;-1.698;2023-03-16T03:08:44;14.30;99.90
16863;DHT22;52193;48.216;-1.698;2023-03-16T03:11:11;14.30;99.90
16863;DHT22;52193;48.216;-1.698;2023-03-16T03:13:38;14.40;99.90
16863;DHT22;52193;48.216;-1.698;2023-03-16T03:16:09;14.30;99.90
16863;DHT22;52193;48.216;-1.698;2023-03-16T03:18:36;14.30;99.90
16863;DHT22;52193;48.216;-1.698;2023-03-16T03:21:03;14.30;99.90
16863;DHT22;52193;48.216;-1.698;2023-03-16T03:23:32;14.20;99.90
16863;DHT22;52193;48.216;-1.698;2023-03-16T03:25:59;14.20;99.90
16863;DHT22;52193;48.216;-1.698;2023-03-16T03:28:27;14.10;99.90
16863;DHT22;52193;48.216;-1.698;2023-03-16T03:30:54;14.10;99.90
16863;DHT22;52193;48.216;-1.698;2023-03-16T03:33:21;14.10;99.90
16863;DHT22;52193;48.216;-1.698;2023-03-16T03:35:53;14.10;99.90
16863;DHT22;52193;48.216;-1.698;2023-03-16T03:38:20;14.10;99.90
16863;DHT22;52193;48.216;-1.698;2023-03-16T03:40:49;14.00;99.90
16863;DHT22;52193;48.216;-1.698;2023-03-16T03:43:16;14.10;99.90
16863;DHT22;52193;48.216;-1.698;2023-03-16T03:45:43;14.00;99.90
16863;DHT22;52193;48.216;-1.698;2023-03-16T03:48:10;14.00;99.90
16863;DHT22;52193;48.216;-1.698;2023-03-16T03:50:37;14.00;99.90
16863;DHT22;52193;48.216;-1.698;2023-03-16T03:53:05;13.90;99.90
16863;DHT22;52193;48.216;-1.698;2023-03-16T03:55:32;13.90;99.90
16863;DHT22;52193;48.216;-1.698;2023-03-16T03:58:00;13.90;99.90
16863;DHT22;52193;48.216;-1.698;2023-03-16T04:00:27;13.90;99.90
16863;DHT22;52193;48.216;-1.698;2023-03-16T04:02:53;14.00;99.90
16863;DHT22;52193;48.216;-1.698;2023-03-16T04:05:20;14.00;99.90
16863;DHT22;52193;48.216;-1.698;2023-03-16T04:07:47;14.00;99.90
16863;DHT22;52193;48.216;-1.698;2023-03-16T04:10:19;14.00;99.90
16863;DHT22;52193;48.216;-1.698;2023-03-16T04:12:46;13.90;99.90
16863;DHT22;52193;48.216;-1.698;2023-03-16T04:15:14;13.90;99.90
16863;DHT22;52193;48.216;-1.698;2023-03-16T04:17:40;13.90;99.90
16863;DHT22;52193;48.216;-1.698;2023-03-16T04:20:08;13.90;99.90
16863;DHT22;52193;48.216;-1.698;2023-03-16T04:22:39;13.90;99.90
16863;DHT22;52193;48.216;-1.698;2023-03-16T04:25:07;13.80;99.90
16863;DHT22;52193;48.216;-1.698;2023-03-16T04:27:33;13.80;99.90
16863;DHT22;52193;48.216;-1.698;2023-03-16T04:30:01;13.70;99.90
16863;DHT22;52193;48.216;-1.698;2023-03-16T04:32:29;13.70;99.90
16863;DHT22;52193;48.216;-1.698;2023-03-16T04:34:56;13.70;99.90
16863;DHT22;52193;48.216;-1.698;2023-03-16T04:37:22;13.60;99.90
16863;DHT22;52193;48.216;-1.698;2023-03-16T04:39:49;13.60;99.90
16863;DHT22;52193;48.216;-1.698;2023-03-16T04:42:16;13.60;99.90
16863;DHT22;52193;48.216;-1.698;2023-03-16T04:44:42;13.60;99.90
16863;DHT22;52193;48.216;-1.698;2023-03-16T04:47:09;13.60;99.90
16863;DHT22;52193;48.216;-1.698;2023-03-16T04:49:37;13.60;99.90
16863;DHT22;52193;48.216;-1.698;2023-03-16T04:52:04;13.60;99.90
16863;DHT22;52193;48.216;-1.698;2023-03-16T04:54:31;13.50;99.90
16863;DHT22;52193;48.216;-1.698;2023-03-16T04:56:58;13.50;99.90
16863;DHT22;52193;48.216;-1.698;2023-03-16T04:59:25;13.50;99.90
16863;DHT22;52193;48.216;-1.698;2023-03-16T05:01:52;13.40;99.90
16863;DHT22;52193;48.216;-1.698;2023-03-16T05:04:19;13.50;99.90
16863;DHT22;52193;48.216;-1.698;2023-03-16T05:06:50;13.40;99.90
16863;DHT22;52193;48.216;-1.698;2023-03-16T05:09:16;13.50;99.90
16863;DHT22;52193;48.216;-1.698;2023-03-16T05:11:45;13.40;99.90
16863;DHT22;52193;48.216;-1.698;2023-03-16T05:14:11;13.30;99.90
16863;DHT22;52193;48.216;-1.698;2023-03-16T05:16:38;13.40;99.90
16863;DHT22;52193;48.216;-1.698;2023-03-16T05:19:06;13.30;99.90
16863;DHT22;52193;48.216;-1.698;2023-03-16T05:21:32;13.30;99.90
16863;DHT22;52193;48.216;-1.698;2023-03-16T05:24:03;13.30;99.90
16863;DHT22;52193;48.216;-1.698;2023-03-16T05:26:30;13.30;99.90
16863;DHT22;52193;48.216;-1.698;2023-03-16T05:28:58;13.30;99.90
16863;DHT22;52193;48.216;-1.698;2023-03-16T05:31:24;13.20;99.90
16863;DHT22;52193;48.216;-1.698;2023-03-16T05:33:51;13.20;99.90
16863;DHT22;52193;48.216;-1.698;2023-03-16T05:36:18;13.20;99.90
16863;DHT22;52193;48.216;-1.698;2023-03-16T05:38:45;13.20;99.90
16863;DHT22;52193;48.216;-1.698;2023-03-16T05:41:13;13.20;99.90
16863;DHT22;52193;48.216;-1.698;2023-03-16T05:43:40;13.20;99.90
16863;DHT22;52193;48.216;-1.698;2023-03-16T05:46:06;13.20;99.90
16863;DHT22;52193;48.216;-1.698;2023-03-16T05:48:33;13.10;99.90
16863;DHT22;52193;48.216;-1.698;2023-03-16T05:51:00;13.10;99.90
16863;DHT22;52193;48.216;-1.698;2023-03-16T05:53:30;13.10;99.90
16863;DHT22;52193;48.216;-1.698;2023-03-16T05:55:56;13.10;99.90
16863;DHT22;52193;48.216;-1.698;2023-03-16T05:58:25;13.10;99.90
16863;DHT22;52193;48.216;-1.698;2023-03-16T06:00:51;13.00;99.90
16863;DHT22;52193;48.216;-1.698;2023-03-16T06:03:19;13.00;99.90
16863;DHT22;52193;48.216;-1.698;2023-03-16T06:05:47;13.00;99.90
16863;DHT22;52193;48.216;-1.698;2023-03-16T06:08:13;13.00;99.90
16863;DHT22;52193;48.216;-1.698;2023-03-16T06:10:40;13.00;99.90
16863;DHT22;52193;48.216;-1.698;2023-03-16T06:13:07;13.10;99.90
16863;DHT22;52193;48.216;-1.698;2023-03-16T06:15:35;13.10;99.90
16863;DHT22;52193;48.216;-1.698;2023-03-16T06:18:02;13.10;99.90
16863;DHT22;52193;48.216;-1.698;2023-03-16T06:20:28;13.10;99.90
16863;DHT22;52193;48.216;-1.698;2023-03-16T06:22:55;13.10;99.90
16863;DHT22;52193;48.216;-1.698;2023-03-16T06:25:22;13.10;99.90
16863;DHT22;52193;48.216;-1.698;2023-03-16T06:27:49;13.10;99.90
16863;DHT22;52193;48.216;-1.698;2023-03-16T06:30:16;13.10;99.90
16863;DHT22;52193;48.216;-1.698;2023-03-16T06:32:44;13.20;99.90
16863;DHT22;52193;48.216;-1.698;2023-03-16T06:35:11;13.10;99.90
16863;DHT22;52193;48.216;-1.698;2023-03-16T06:37:38;13.10;99.90
16863;DHT22;52193;48.216;-1.698;2023-03-16T06:40:06;13.00;99.90
16863;DHT22;52193;48.216;-1.698;2023-03-16T06:42:33;13.10;99.90
16863;DHT22;52193;48.216;-1.698;2023-03-16T06:44:59;13.10;99.90
16863;DHT22;52193;48.216;-1.698;2023-03-16T06:47:26;13.10;99.90
16863;DHT22;52193;48.216;-1.698;2023-03-16T06:49:54;13.10;99.90
16863;DHT22;52193;48.216;-1.698;2023-03-16T06:52:21;13.00;99.90
16863;DHT22;52193;48.216;-1.698;2023-03-16T06:54:47;13.10;99.90
16863;DHT22;52193;48.216;-1.698;2023-03-16T06:57:14;13.10;99.90
16863;DHT22;52193;48.216;-1.698;2023-03-16T06:59:41;13.10;99.90
16863;DHT22;52193;48.216;-1.698;2023-03-16T07:02:08;13.00;99.90
16863;DHT22;52193;48.216;-1.698;2023-03-16T07:04:36;13.10;99.90
16863;DHT22;52193;48.216;-1.698;2023-03-16T07:07:04;13.10;99.90
16863;DHT22;52193;48.216;-1.698;2023-03-16T07:09:31;13.10;99.90
16863;DHT22;52193;48.216;-1.698;2023-03-16T07:11:57;13.10;99.90
16863;DHT22;52193;48.216;-1.698;2023-03-16T07:14:24;13.20;99.90
16863;DHT22;52193;48.216;-1.698;2023-03-16T07:16:51;13.20;99.90
16863;DHT22;52193;48.216;-1.698;2023-03-16T07:19:18;13.20;99.90
16863;DHT22;52193;48.216;-1.698;2023-03-16T07:21:44;13.20;99.90
16863;DHT22;52193;48.216;-1.698;2023-03-16T07:24:13;13.30;99.90
16863;DHT22;52193;48.216;-1.698;2023-03-16T07:26:39;13.30;99.90
16863;DHT22;52193;48.216;-1.698;2023-03-16T07:29:06;13.30;99.90
16863;DHT22;52193;48.216;-1.698;2023-03-16T07:31:34;13.30;99.90
16863;DHT22;52193;48.216;-1.698;2023-03-16T07:34:00;13.30;99.90
16863;DHT22;52193;48.216;-1.698;2023-03-16T07:36:27;13.40;99.90
16863;DHT22;52193;48.216;-1.698;2023-03-16T07:38:54;13.40;99.90
16863;DHT22;52193;48.216;-1.698;2023-03-16T07:41:22;13.50;99.90
16863;DHT22;52193;48.216;-1.698;2023-03-16T07:43:49;13.50;99.90
16863;DHT22;52193;48.216;-1.698;2023-03-16T07:46:16;13.60;99.90
16863;DHT22;52193;48.216;-1.698;2023-03-16T07:48:43;13.60;99.90
16863;DHT22;52193;48.216;-1.698;2023-03-16T07:51:10;13.60;99.90
16863;DHT22;52193;48.216;-1.698;2023-03-16T07:53:37;13.70;99.90
16863;DHT22;52193;48.216;-1.698;2023-03-16T07:56:05;13.70;99.90
16863;DHT22;52193;48.216;-1.698;2023-03-16T07:58:33;13.80;99.90
16863;DHT22;52193;48.216;-1.698;2023-03-16T08:00:59;13.80;99.90
16863;DHT22;52193;48.216;-1.698;2023-03-16T08:03:27;13.90;99.90
16863;DHT22;52193;48.216;-1.698;2023-03-16T08:05:54;13.90;99.90
16863;DHT22;52193;48.216;-1.698;2023-03-16T08:08:21;14.00;99.90
16863;DHT22;52193;48.216;-1.698;2023-03-16T08:10:48;14.10;99.90
16863;DHT22;52193;48.216;-1.698;2023-03-16T08:13:16;14.10;99.90
16863;DHT22;52193;48.216;-1.698;2023-03-16T08:15:46;14.20;99.90
16863;DHT22;52193;48.216;-1.698;2023-03-16T08:18:13;14.30;99.90
16863;DHT22;52193;48.216;-1.698;2023-03-16T08:20:39;14.40;99.90
16863;DHT22;52193;48.216;-1.698;2023-03-16T08:23:08;14.40;99.90
16863;DHT22;52193;48.216;-1.698;2023-03-16T08:25:36;14.50;99.90
16863;DHT22;52193;48.216;-1.698;2023-03-16T08:28:03;14.50;99.90
16863;DHT22;52193;48.216;-1.698;2023-03-16T08:30:30;14.60;99.90
16863;DHT22;52193;48.216;-1.698;2023-03-16T08:32:58;14.70;99.90
16863;DHT22;52193;48.216;-1.698;2023-03-16T08:35:25;14.70;99.90
16863;DHT22;52193;48.216;-1.698;2023-03-16T08:37:53;14.70;99.90
16863;DHT22;52193;48.216;-1.698;2023-03-16T08:40:20;14.70;99.90
16863;DHT22;52193;48.216;-1.698;2023-03-16T08:42:49;14.80;99.90
16863;DHT22;52193;48.216;-1.698;2023-03-16T08:45:16;14.90;99.90
16863;DHT22;52193;48.216;-1.698;2023-03-16T08:47:44;15.00;99.90
16863;DHT22;52193;48.216;-1.698;2023-03-16T08:50:12;15.00;99.90
16863;DHT22;52193;48.216;-1.698;2023-03-16T08:52:39;15.00;99.90
16863;DHT22;52193;48.216;-1.698;2023-03-16T08:55:07;15.10;99.90
16863;DHT22;52193;48.216;-1.698;2023-03-16T08:57:35;15.20;99.90
16863;DHT22;52193;48.216;-1.698;2023-03-16T09:00:04;15.20;99.90
16863;DHT22;52193;48.216;-1.698;2023-03-16T09:02:37;15.30;99.90
16863;DHT22;52193;48.216;-1.698;2023-03-16T09:05:06;15.40;99.90
16863;DHT22;52193;48.216;-1.698;2023-03-16T09:07:34;15.50;99.90
16863;DHT22;52193;48.216;-1.698;2023-03-16T09:10:01;15.50;99.90
16863;DHT22;52193;48.216;-1.698;2023-03-16T09:12:29;15.60;99.90
16863;DHT22;52193;48.216;-1.698;2023-03-16T09:14:56;15.70;99.90
16863;DHT22;52193;48.216;-1.698;2023-03-16T09:17:23;15.70;99.90
16863;DHT22;52193;48.216;-1.698;2023-03-16T09:19:50;15.80;99.90
16863;DHT22;52193;48.216;-1.698;2023-03-16T09:22:16;15.70;99.90
16863;DHT22;52193;48.216;-1.698;2023-03-16T09:24:45;15.80;99.90
16863;DHT22;52193;48.216;-1.698;2023-03-16T09:27:12;15.90;99.90
16863;DHT22;52193;48.216;-1.698;2023-03-16T09:29:39;16.00;99.90
16863;DHT22;52193;48.216;-1.698;2023-03-16T09:32:07;16.10;99.90
16863;DHT22;52193;48.216;-1.698;2023-03-16T09:34:34;16.20;99.90
16863;DHT22;52193;48.216;-1.698;2023-03-16T09:37:00;16.20;99.90
16863;DHT22;52193;48.216;-1.698;2023-03-16T09:39:27;16.30;99.90
16863;DHT22;52193;48.216;-1.698;2023-03-16T09:41:57;16.40;99.90
16863;DHT22;52193;48.216;-1.698;2023-03-16T09:44:28;16.50;99.90
16863;DHT22;52193;48.216;-1.698;2023-03-16T09:46:55;16.50;99.90
16863;DHT22;52193;48.216;-1.698;2023-03-16T09:49:26;16.50;99.90
16863;DHT22;52193;48.216;-1.698;2023-03-16T09:51:54;16.60;99.90
16863;DHT22;52193;48.216;-1.698;2023-03-16T09:54:28;16.70;99.90
16863;DHT22;52193;48.216;-1.698;2023-03-16T09:56:56;16.70;99.90
16863;DHT22;52193;48.216;-1.698;2023-03-16T09:59:23;16.70;99.90
16863;DHT22;52193;48.216;-1.698;2023-03-16T10:01:55;16.80;99.90
16863;DHT22;52193;48.216;-1.698;2023-03-16T10:04:26;16.90;99.90
16863;DHT22;52193;48.216;-1.698;2023-03-16T10:07:00;17.00;99.90
16863;DHT22;52193;48.216;-1.698;2023-03-16T10:09:31;17.10;99.90
16863;DHT22;52193;48.216;-1.698;2023-03-16T10:12:00;17.10;99.90
16863;DHT22;52193;48.216;-1.698;2023-03-16T10:14:29;17.20;99.90
16863;DHT22;52193;48.216;-1.698;2023-03-16T10:17:00;17.30;99.90
16863;DHT22;52193;48.216;-1.698;2023-03-16T10:19:35;17.30;99.90
16863;DHT22;52193;48.216;-1.698;2023-03-16T10:22:14;17.20;99.90
16863;DHT22;52193;48.216;-1.698;2023-03-16T10:24:52;17.10;99.90
16863;DHT22;52193;48.216;-1.698;2023-03-16T10:27:27;17.10;99.90
16863;DHT22;52193;48.216;-1.698;2023-03-16T10:29:55;17.10;99.90
16863;DHT22;52193;48.216;-1.698;2023-03-16T10:32:22;17.30;99.90
16863;DHT22;52193;48.216;-1.698;2023-03-16T10:34:57;17.40;99.90
16863;DHT22;52193;48.216;-1.698;2023-03-16T10:37:27;17.40;99.90
16863;DHT22;52193;48.216;-1.698;2023-03-16T10:39:55;17.50;99.90
16863;DHT22;52193;48.216;-1.698;2023-03-16T10:42:26;17.60;99.90
16863;DHT22;52193;48.216;-1.698;2023-03-16T10:44:57;17.80;99.90
16863;DHT22;52193;48.216;-1.698;2023-03-16T10:47:28;17.90;99.90
16863;DHT22;52193;48.216;-1.698;2023-03-16T10:49:56;18.00;99.90
16863;DHT22;52193;48.216;-1.698;2023-03-16T10:52:33;18.10;99.90
16863;DHT22;52193;48.216;-1.698;2023-03-16T10:55:08;18.20;99.90
16863;DHT22;52193;48.216;-1.698;2023-03-16T10:57:41;18.30;99.90
16863;DHT22;52193;48.216;-1.698;2023-03-16T11:00:13;18.30;99.90
16863;DHT22;52193;48.216;-1.698;2023-03-16T11:02:46;18.30;99.90
16863;DHT22;52193;48.216;-1.698;2023-03-16T11:05:18;18.40;99.90
16863;DHT22;52193;48.216;-1.698;2023-03-16T11:07:52;18.40;99.90
16863;DHT22;52193;48.216;-1.698;2023-03-16T11:10:28;18.50;99.90
16863;DHT22;52193;48.216;-1.698;2023-03-16T11:13:04;18.50;99.90
16863;DHT22;52193;48.216;-1.698;2023-03-16T11:15:36;18.60;99.90
16863;DHT22;52193;48.216;-1.698;2023-03-16T11:18:07;18.80;99.90
16863;DHT22;52193;48.216;-1.698;2023-03-16T11:20:38;19.00;99.90
16863;DHT22;52193;48.216;-1.698;2023-03-16T11:23:11;19.10;99.90
16863;DHT22;52193;48.216;-1.698;2023-03-16T11:25:44;19.20;99.90
16863;DHT22;52193;48.216;-1.698;2023-03-16T11:28:27;19.30;99.90
16863;DHT22;52193;48.216;-1.698;2023-03-16T11:31:05;19.50;99.90
16863;DHT22;52193;48.216;-1.698;2023-03-16T11:33:34;19.40;99.90
16863;DHT22;52193;48.216;-1.698;2023-03-16T11:36:12;19.60;99.90
16863;DHT22;52193;48.216;-1.698;2023-03-16T11:38:48;19.60;99.80
16863;DHT22;52193;48.216;-1.698;2023-03-16T11:41:21;19.70;99.90
16863;DHT22;52193;48.216;-1.698;2023-03-16T11:43:55;19.80;99.40
16863;DHT22;52193;48.216;-1.698;2023-03-16T11:46:25;19.80;98.90
16863;DHT22;52193;48.216;-1.698;2023-03-16T11:51:56;20.10;98.70
16863;DHT22;52193;48.216;-1.698;2023-03-16T11:54:39;20.30;98.50
16863;DHT22;52193;48.216;-1.698;2023-03-16T11:57:24;20.50;98.30
16863;DHT22;52193;48.216;-1.698;2023-03-16T12:00:06;20.60;98.20
16863;DHT22;52193;48.216;-1.698;2023-03-16T12:02:53;20.50;97.90
16863;DHT22;52193;48.216;-1.698;2023-03-16T12:05:38;20.50;97.90
16863;DHT22;52193;48.216;-1.698;2023-03-16T12:08:32;20.60;98.10
16863;DHT22;52193;48.216;-1.698;2023-03-16T12:11:05;20.70;98.00
16863;DHT22;52193;48.216;-1.698;2023-03-16T12:13:51;20.70;97.50
16863;DHT22;52193;48.216;-1.698;2023-03-16T12:16:25;20.70;97.50
16863;DHT22;52193;48.216;-1.698;2023-03-16T12:18:56;20.90;97.40
16863;DHT22;52193;48.216;-1.698;2023-03-16T12:21:28;20.90;97.10
16863;DHT22;52193;48.216;-1.698;2023-03-16T12:24:00;21.00;97.00
16863;DHT22;52193;48.216;-1.698;2023-03-16T12:26:32;21.00;97.20
16863;DHT22;52193;48.216;-1.698;2023-03-16T12:29:06;21.20;97.10
16863;DHT22;52193;48.216;-1.698;2023-03-16T12:31:44;21.30;96.70
16863;DHT22;52193;48.216;-1.698;2023-03-16T12:34:21;21.40;96.30
16863;DHT22;52193;48.216;-1.698;2023-03-16T12:37:00;21.60;95.70
16863;DHT22;52193;48.216;-1.698;2023-03-16T12:42:53;22.30;95.70
16863;DHT22;52193;48.216;-1.698;2023-03-16T12:45:28;22.60;95.30
16863;DHT22;52193;48.216;-1.698;2023-03-16T12:48:08;22.70;94.00
16863;DHT22;52193;48.216;-1.698;2023-03-16T12:50:47;22.90;93.50
16863;DHT22;52193;48.216;-1.698;2023-03-16T12:53:25;23.00;93.00
16863;DHT22;52193;48.216;-1.698;2023-03-16T12:55:53;23.20;93.00
16863;DHT22;52193;48.216;-1.698;2023-03-16T12:58:22;23.30;92.90
16863;DHT22;52193;48.216;-1.698;2023-03-16T13:00:55;23.60;93.20
16863;DHT22;52193;48.216;-1.698;2023-03-16T13:03:24;23.60;92.80
16863;DHT22;52193;48.216;-1.698;2023-03-16T13:05:53;23.60;92.60
16863;DHT22;52193;48.216;-1.698;2023-03-16T13:08:21;23.60;92.60
16863;DHT22;52193;48.216;-1.698;2023-03-16T13:11:01;23.70;92.70
16863;DHT22;52193;48.216;-1.698;2023-03-16T13:13:29;23.80;92.50
16863;DHT22;52193;48.216;-1.698;2023-03-16T13:16:03;24.00;92.40
16863;DHT22;52193;48.216;-1.698;2023-03-16T13:18:38;24.30;92.40
16863;DHT22;52193;48.216;-1.698;2023-03-16T13:21:15;24.80;92.20
16863;DHT22;52193;48.216;-1.698;2023-03-16T13:23:53;25.50;91.80
16863;DHT22;52193;48.216;-1.698;2023-03-16T13:26:32;26.00;91.20
16863;DHT22;52193;48.216;-1.698;2023-03-16T13:29:17;26.30;90.80
16863;DHT22;52193;48.216;-1.698;2023-03-16T13:31:45;26.20;90.00
16863;DHT22;52193;48.216;-1.698;2023-03-16T13:34:20;26.20;89.70
16863;DHT22;52193;48.216;-1.698;2023-03-16T13:36:51;26.50;89.60
16863;DHT22;52193;48.216;-1.698;2023-03-16T13:39:19;26.60;88.60
16863;DHT22;52193;48.216;-1.698;2023-03-16T13:41:57;26.90;88.10
16863;DHT22;52193;48.216;-1.698;2023-03-16T13:44:25;27.00;87.50
16863;DHT22;52193;48.216;-1.698;2023-03-16T13:46:52;27.20;86.80
16863;DHT22;52193;48.216;-1.698;2023-03-16T13:49:21;27.20;86.50
16863;DHT22;52193;48.216;-1.698;2023-03-16T13:51:48;27.40;86.00
16863;DHT22;52193;48.216;-1.698;2023-03-16T13:54:21;27.40;85.70
16863;DHT22;52193;48.216;-1.698;2023-03-16T13:56:50;27.70;85.70
16863;DHT22;52193;48.216;-1.698;2023-03-16T13:59:19;28.00;84.90
16863;DHT22;52193;48.216;-1.698;2023-03-16T14:01:46;28.40;84.30
16863;DHT22;52193;48.216;-1.698;2023-03-16T14:04:15;28.70;83.80
16863;DHT22;52193;48.216;-1.698;2023-03-16T14:06:53;28.80;83.00
16863;DHT22;52193;48.216;-1.698;2023-03-16T14:09:23;28.90;82.90
16863;DHT22;52193;48.216;-1.698;2023-03-16T14:11:52;29.00;82.90
16863;DHT22;52193;48.216;-1.698;2023-03-16T14:14:24;28.80;82.70
16863;DHT22;52193;48.216;-1.698;2023-03-16T14:16:52;28.50;83.00
16863;DHT22;52193;48.216;-1.698;2023-03-16T14:19:21;28.40;83.00
16863;DHT22;52193;48.216;-1.698;2023-03-16T14:21:54;28.10;82.90
16863;DHT22;52193;48.216;-1.698;2023-03-16T14:24:30;27.90;82.90
16863;DHT22;52193;48.216;-1.698;2023-03-16T14:27:08;28.80;82.80
16863;DHT22;52193;48.216;-1.698;2023-03-16T14:29:42;29.30;80.70
16863;DHT22;52193;48.216;-1.698;2023-03-16T14:32:20;29.20;79.50
16863;DHT22;52193;48.216;-1.698;2023-03-16T14:34:48;28.90;79.60
16863;DHT22;52193;48.216;-1.698;2023-03-16T14:37:17;28.70;80.20
16863;DHT22;52193;48.216;-1.698;2023-03-16T14:39:45;28.80;80.10
16863;DHT22;52193;48.216;-1.698;2023-03-16T14:42:26;29.30;79.40
16863;DHT22;52193;48.216;-1.698;2023-03-16T14:44:55;29.20;79.40
16863;DHT22;52193;48.216;-1.698;2023-03-16T14:47:24;28.90;79.50
16863;DHT22;52193;48.216;-1.698;2023-03-16T14:49:53;28.40;79.70
16863;DHT22;52193;48.216;-1.698;2023-03-16T14:52:25;27.90;79.90
16863;DHT22;52193;48.216;-1.698;2023-03-16T14:54:54;27.50;80.10
16863;DHT22;52193;48.216;-1.698;2023-03-16T14:57:21;27.20;80.20
16863;DHT22;52193;48.216;-1.698;2023-03-16T14:59:49;26.90;80.60
16863;DHT22;52193;48.216;-1.698;2023-03-16T15:02:18;26.60;81.10
16863;DHT22;52193;48.216;-1.698;2023-03-16T15:04:47;26.50;81.80
16863;DHT22;52193;48.216;-1.698;2023-03-16T15:07:23;26.70;81.80
16863;DHT22;52193;48.216;-1.698;2023-03-16T15:09:52;27.10;81.50
16863;DHT22;52193;48.216;-1.698;2023-03-16T15:12:21;27.00;81.60
16863;DHT22;52193;48.216;-1.698;2023-03-16T15:14:49;26.90;81.70
16863;DHT22;52193;48.216;-1.698;2023-03-16T15:17:34;26.80;81.80
16863;DHT22;52193;48.216;-1.698;2023-03-16T15:20:01;26.70;82.70
16863;DHT22;52193;48.216;-1.698;2023-03-16T15:22:32;26.50;82.20
16863;DHT22;52193;48.216;-1.698;2023-03-16T15:25:17;26.70;82.50
16863;DHT22;52193;48.216;-1.698;2023-03-16T15:27:45;27.60;82.00
16863;DHT22;52193;48.216;-1.698;2023-03-16T15:30:15;28.10;81.30
16863;DHT22;52193;48.216;-1.698;2023-03-16T15:32:42;28.50;80.80
16863;DHT22;52193;48.216;-1.698;2023-03-16T15:35:10;29.10;80.10
16863;DHT22;52193;48.216;-1.698;2023-03-16T15:37:38;29.30;79.40